sensor_id;sensor_type;location;lat;lon;timestamp;temperature;humidity
80779;SHT30;70170;47.856;10.956;2023-07-24T00:02:13;16.12;86.63
80779;SHT30;70170;47.856;10.956;2023-07-24T00:04:38;16.08;86.86
80779;SHT30;70170;47.856;10.956;2023-07-24T00:07:03;16.11;87.31
80779;SHT30;70170;47.856;10.956;2023-07-24T00:09:29;16.44;85.26
80779;SHT30;70170;47.856;10.956;2023-07-24T00:11:54;16.30;85.15
80779;SHT30;70170;47.856;10.956;2023-07-24T00:14:19;15.94;86.56
80779;SHT30;70170;47.856;10.956;2023-07-24T00:16:45;15.59;87.43
80779;SHT30;70170;47.856;10.956;2023-07-24T00:19:10;15.15;88.90
80779;SHT30;70170;47.856;10.956;2023-07-24T00:21:35;14.81;90.54
80779;SHT30;70170;47.856;10.956;2023-07-24T00:24:01;14.67;91.35
80779;SHT30;70170;47.856;10.956;2023-07-24T00:26:26;14.52;91.76
80779;SHT30;70170;47.856;10.956;2023-07-24T00:28:51;14.43;92.22
80779;SHT30;70170;47.856;10.956;2023-07-24T00:31:17;14.45;92.18
80779;SHT30;70170;47.856;10.956;2023-07-24T00:33:42;14.63;91.23
80779;SHT30;70170;47.856;10.956;2023-07-24T00:36:07;14.85;90.85
80779;SHT30;70170;47.856;10.956;2023-07-24T00:38:33;14.77;90.86
80779;SHT30;70170;47.856;10.956;2023-07-24T00:40:58;14.74;90.93
80779;SHT30;70170;47.856;10.956;2023-07-24T00:43:23;14.88;90.52
80779;SHT30;70170;47.856;10.956;2023-07-24T00:45:49;15.38;89.33
80779;SHT30;70170;47.856;10.956;2023-07-24T00:48:14;15.45;88.47
80779;SHT30;70170;47.856;10.956;2023-07-24T00:50:42;15.53;87.93
80779;SHT30;70170;47.856;10.956;2023-07-24T00:53:07;15.32;88.75
80779;SHT30;70170;47.856;10.956;2023-07-24T00:55:33;15.15;89.37
80779;SHT30;70170;47.856;10.956;2023-07-24T00:57:59;15.17;89.27
80779;SHT30;70170;47.856;10.956;2023-07-24T01:00:25;15.29;89.15
80779;SHT30;70170;47.856;10.956;2023-07-24T01:02:51;15.66;87.58
80779;SHT30;70170;47.856;10.956;2023-07-24T01:05:17;16.17;85.88
80779;SHT30;70170;47.856;10.956;2023-07-24T01:07:42;16.05;85.53
80779;SHT30;70170;47.856;10.956;2023-07-24T01:10:08;15.90;86.73
80779;SHT30;70170;47.856;10.956;2023-07-24T01:12:39;15.69;87.37
80779;SHT30;70170;47.856;10.956;2023-07-24T01:15:20;15.80;87.24
80779;SHT30;70170;47.856;10.956;2023-07-24T01:17:50;15.86;86.82
80779;SHT30;70170;47.856;10.956;2023-07-24T01:20:19;15.98;86.57
80779;SHT30;70170;47.856;10.956;2023-07-24T01:25:31;15.54;87.84
80779;SHT30;70170;47.856;10.956;2023-07-24T01:27:57;15.35;88.47
80779;SHT30;70170;47.856;10.956;2023-07-24T01:30:22;15.43;88.70
80779;SHT30;70170;47.856;10.956;2023-07-24T01:32:48;15.39;88.53
80779;SHT30;70170;47.856;10.956;2023-07-24T01:35:14;15.49;88.11
80779;SHT30;70170;47.856;10.956;2023-07-24T01:37:39;15.62;88.03
80779;SHT30;70170;47.856;10.956;2023-07-24T01:40:09;15.67;87.79
80779;SHT30;70170;47.856;10.956;2023-07-24T01:42:35;15.60;87.83
80779;SHT30;70170;47.856;10.956;2023-07-24T01:45:02;15.45;88.30
80779;SHT30;70170;47.856;10.956;2023-07-24T01:47:28;15.40;88.61
80779;SHT30;70170;47.856;10.956;2023-07-24T01:49:55;15.40;88.55
80779;SHT30;70170;47.856;10.956;2023-07-24T01:52:20;15.42;88.51
80779;SHT30;70170;47.856;10.956;2023-07-24T01:54:45;15.32;88.51
80779;SHT30;70170;47.856;10.956;2023-07-24T01:57:11;15.15;88.96
80779;SHT30;70170;47.856;10.956;2023-07-24T01:59:36;15.14;89.39
80779;SHT30;70170;47.856;10.956;2023-07-24T02:02:01;15.05;89.25
80779;SHT30;70170;47.856;10.956;2023-07-24T02:04:27;15.04;89.51
80779;SHT30;70170;47.856;10.956;2023-07-24T02:06:52;15.11;89.16
80779;SHT30;70170;47.856;10.956;2023-07-24T02:09:18;15.17;88.91
80779;SHT30;70170;47.856;10.956;2023-07-24T02:11:44;15.22;88.63
80779;SHT30;70170;47.856;10.956;2023-07-24T02:14:11;15.19;88.62
80779;SHT30;70170;47.856;10.956;2023-07-24T02:16:36;15.17;88.77
80779;SHT30;70170;47.856;10.956;2023-07-24T02:19:02;15.21;88.58
80779;SHT30;70170;47.856;10.956;2023-07-24T02:21:27;15.31;88.19
80779;SHT30;70170;47.856;10.956;2023-07-24T02:23:52;15.40;87.99
80779;SHT30;70170;47.856;10.956;2023-07-24T02:26:18;15.53;87.31
80779;SHT30;70170;47.856;10.956;2023-07-24T02:28:43;15.63;87.53
80779;SHT30;70170;47.856;10.956;2023-07-24T02:31:08;15.22;90.17
80779;SHT30;70170;47.856;10.956;2023-07-24T02:33:34;15.60;89.83
80779;SHT30;70170;47.856;10.956;2023-07-24T02:36:00;15.71;88.73
80779;SHT30;70170;47.856;10.956;2023-07-24T02:38:26;15.77;88.81
80779;SHT30;70170;47.856;10.956;2023-07-24T02:40:51;16.33;85.50
80779;SHT30;70170;47.856;10.956;2023-07-24T02:43:16;16.85;83.12
80779;SHT30;70170;47.856;10.956;2023-07-24T02:45:42;17.01;82.48
80779;SHT30;70170;47.856;10.956;2023-07-24T02:48:07;16.98;83.28
80779;SHT30;70170;47.856;10.956;2023-07-24T02:50:33;16.69;84.28
80779;SHT30;70170;47.856;10.956;2023-07-24T02:52:58;16.36;86.22
80779;SHT30;70170;47.856;10.956;2023-07-24T02:55:23;16.05;87.25
80779;SHT30;70170;47.856;10.956;2023-07-24T02:57:49;15.87;89.16
80779;SHT30;70170;47.856;10.956;2023-07-24T03:00:14;15.81;89.55
80779;SHT30;70170;47.856;10.956;2023-07-24T03:02:40;15.81;90.25
80779;SHT30;70170;47.856;10.956;2023-07-24T03:05:05;16.00;89.81
80779;SHT30;70170;47.856;10.956;2023-07-24T03:07:32;16.11;89.24
80779;SHT30;70170;47.856;10.956;2023-07-24T03:09:57;16.12;89.39
80779;SHT30;70170;47.856;10.956;2023-07-24T03:12:22;16.07;90.17
80779;SHT30;70170;47.856;10.956;2023-07-24T03:14:48;15.89;90.85
80779;SHT30;70170;47.856;10.956;2023-07-24T03:17:13;15.81;91.10
80779;SHT30;70170;47.856;10.956;2023-07-24T03:19:39;15.67;92.13
80779;SHT30;70170;47.856;10.956;2023-07-24T03:22:05;15.52;92.86
80779;SHT30;70170;47.856;10.956;2023-07-24T03:24:30;15.35;93.45
80779;SHT30;70170;47.856;10.956;2023-07-24T03:26:55;15.28;93.93
80779;SHT30;70170;47.856;10.956;2023-07-24T03:29:20;15.46;92.53
80779;SHT30;70170;47.856;10.956;2023-07-24T03:31:46;15.40;92.72
80779;SHT30;70170;47.856;10.956;2023-07-24T03:34:11;15.28;93.60
80779;SHT30;70170;47.856;10.956;2023-07-24T03:36:36;15.25;93.74
80779;SHT30;70170;47.856;10.956;2023-07-24T03:39:04;15.25;93.94
80779;SHT30;70170;47.856;10.956;2023-07-24T03:41:30;15.19;94.11
80779;SHT30;70170;47.856;10.956;2023-07-24T03:43:55;15.19;93.92
80779;SHT30;70170;47.856;10.956;2023-07-24T03:46:20;15.24;93.51
80779;SHT30;70170;47.856;10.956;2023-07-24T03:48:46;15.25;93.02
80779;SHT30;70170;47.856;10.956;2023-07-24T03:51:11;15.31;92.77
80779;SHT30;70170;47.856;10.956;2023-07-24T03:53:36;15.57;91.21
80779;SHT30;70170;47.856;10.956;2023-07-24T03:56:02;15.71;90.36
80779;SHT30;70170;47.856;10.956;2023-07-24T03:58:27;15.79;90.12
80779;SHT30;70170;47.856;10.956;2023-07-24T04:00:52;15.84;89.70
80779;SHT30;70170;47.856;10.956;2023-07-24T04:03:18;15.93;88.74
80779;SHT30;70170;47.856;10.956;2023-07-24T04:05:43;16.05;87.98
80779;SHT30;70170;47.856;10.956;2023-07-24T04:08:09;16.02;87.81
80779;SHT30;70170;47.856;10.956;2023-07-24T04:10:34;16.15;87.00
80779;SHT30;70170;47.856;10.956;2023-07-24T04:12:59;16.18;86.67
80779;SHT30;70170;47.856;10.956;2023-07-24T04:15:25;16.22;85.67
80779;SHT30;70170;47.856;10.956;2023-07-24T04:17:50;16.18;85.91
80779;SHT30;70170;47.856;10.956;2023-07-24T04:20:15;16.35;84.91
80779;SHT30;70170;47.856;10.956;2023-07-24T04:22:40;16.36;84.78
80779;SHT30;70170;47.856;10.956;2023-07-24T04:25:06;16.45;84.11
80779;SHT30;70170;47.856;10.956;2023-07-24T04:27:32;16.53;83.85
80779;SHT30;70170;47.856;10.956;2023-07-24T04:29:57;16.63;83.20
80779;SHT30;70170;47.856;10.956;2023-07-24T04:32:22;16.97;81.82
80779;SHT30;70170;47.856;10.956;2023-07-24T04:34:47;17.12;81.14
80779;SHT30;70170;47.856;10.956;2023-07-24T04:37:13;17.35;79.94
80779;SHT30;70170;47.856;10.956;2023-07-24T04:39:39;17.53;79.32
80779;SHT30;70170;47.856;10.956;2023-07-24T04:42:05;17.42;79.91
80779;SHT30;70170;47.856;10.956;2023-07-24T04:44:30;17.53;79.90
80779;SHT30;70170;47.856;10.956;2023-07-24T04:46:57;17.55;79.80
80779;SHT30;70170;47.856;10.956;2023-07-24T04:49:22;17.50;79.91
80779;SHT30;70170;47.856;10.956;2023-07-24T04:51:48;17.39;80.07
80779;SHT30;70170;47.856;10.956;2023-07-24T04:54:13;17.42;80.10
80779;SHT30;70170;47.856;10.956;2023-07-24T04:56:38;17.40;80.79
80779;SHT30;70170;47.856;10.956;2023-07-24T04:59:04;17.47;80.14
80779;SHT30;70170;47.856;10.956;2023-07-24T05:01:29;17.50;79.99
80779;SHT30;70170;47.856;10.956;2023-07-24T05:03:54;17.61;80.31
80779;SHT30;70170;47.856;10.956;2023-07-24T05:06:20;17.66;80.23
80779;SHT30;70170;47.856;10.956;2023-07-24T05:08:45;17.80;80.21
80779;SHT30;70170;47.856;10.956;2023-07-24T05:11:10;17.96;80.07
80779;SHT30;70170;47.856;10.956;2023-07-24T05:13:35;18.14;79.06
80779;SHT30;70170;47.856;10.956;2023-07-24T05:16:01;18.44;77.90
80779;SHT30;70170;47.856;10.956;2023-07-24T05:18:26;18.82;77.51
80779;SHT30;70170;47.856;10.956;2023-07-24T05:20:51;19.11;76.42
80779;SHT30;70170;47.856;10.956;2023-07-24T05:23:17;19.17;75.46
80779;SHT30;70170;47.856;10.956;2023-07-24T05:25:42;19.46;74.59
80779;SHT30;70170;47.856;10.956;2023-07-24T05:28:08;19.69;74.68
80779;SHT30;70170;47.856;10.956;2023-07-24T05:30:33;19.65;75.40
80779;SHT30;70170;47.856;10.956;2023-07-24T05:32:59;19.55;75.03
80779;SHT30;70170;47.856;10.956;2023-07-24T05:35:24;19.45;74.88
80779;SHT30;70170;47.856;10.956;2023-07-24T05:37:49;19.82;74.24
80779;SHT30;70170;47.856;10.956;2023-07-24T05:40:14;20.18;73.50
80779;SHT30;70170;47.856;10.956;2023-07-24T05:42:40;20.21;73.23
80779;SHT30;70170;47.856;10.956;2023-07-24T05:45:09;19.90;73.67
80779;SHT30;70170;47.856;10.956;2023-07-24T05:47:34;19.70;73.72
80779;SHT30;70170;47.856;10.956;2023-07-24T05:50:00;20.04;73.44
80779;SHT30;70170;47.856;10.956;2023-07-24T05:52:25;19.94;72.96
80779;SHT30;70170;47.856;10.956;2023-07-24T05:54:50;20.00;72.52
80779;SHT30;70170;47.856;10.956;2023-07-24T05:57:15;20.16;72.52
80779;SHT30;70170;47.856;10.956;2023-07-24T05:59:41;20.21;72.29
80779;SHT30;70170;47.856;10.956;2023-07-24T06:02:06;20.25;71.87
80779;SHT30;70170;47.856;10.956;2023-07-24T06:04:32;21.00;70.40
80779;SHT30;70170;47.856;10.956;2023-07-24T06:06:58;21.17;69.97
80779;SHT30;70170;47.856;10.956;2023-07-24T06:09:23;21.62;68.58
80779;SHT30;70170;47.856;10.956;2023-07-24T06:11:48;21.69;67.80
80779;SHT30;70170;47.856;10.956;2023-07-24T06:14:14;21.66;67.19
80779;SHT30;70170;47.856;10.956;2023-07-24T06:16:39;22.01;67.54
80779;SHT30;70170;47.856;10.956;2023-07-24T06:19:05;21.61;66.17
80779;SHT30;70170;47.856;10.956;2023-07-24T06:21:30;22.40;65.81
80779;SHT30;70170;47.856;10.956;2023-07-24T06:23:55;22.09;65.12
80779;SHT30;70170;47.856;10.956;2023-07-24T06:26:21;23.07;63.51
80779;SHT30;70170;47.856;10.956;2023-07-24T06:28:47;23.21;63.25
80779;SHT30;70170;47.856;10.956;2023-07-24T06:31:12;22.47;64.12
80779;SHT30;70170;47.856;10.956;2023-07-24T06:33:37;23.59;62.69
80779;SHT30;70170;47.856;10.956;2023-07-24T06:36:03;24.26;61.13
80779;SHT30;70170;47.856;10.956;2023-07-24T06:38:28;24.26;59.54
80779;SHT30;70170;47.856;10.956;2023-07-24T06:40:53;24.34;59.20
80779;SHT30;70170;47.856;10.956;2023-07-24T06:43:19;23.85;61.10
80779;SHT30;70170;47.856;10.956;2023-07-24T06:45:44;24.08;60.23
80779;SHT30;70170;47.856;10.956;2023-07-24T06:48:10;24.03;61.08
80779;SHT30;70170;47.856;10.956;2023-07-24T06:50:35;23.36;63.36
80779;SHT30;70170;47.856;10.956;2023-07-24T06:53:00;22.59;65.61
80779;SHT30;70170;47.856;10.956;2023-07-24T06:55:26;22.20;67.55
80779;SHT30;70170;47.856;10.956;2023-07-24T06:57:51;21.88;69.17
80779;SHT30;70170;47.856;10.956;2023-07-24T07:00:16;21.00;72.93
80779;SHT30;70170;47.856;10.956;2023-07-24T07:02:42;19.49;79.16
80779;SHT30;70170;47.856;10.956;2023-07-24T07:05:07;18.59;83.44
80779;SHT30;70170;47.856;10.956;2023-07-24T07:07:33;18.19;85.20
80779;SHT30;70170;47.856;10.956;2023-07-24T07:09:58;18.19;86.80
80779;SHT30;70170;47.856;10.956;2023-07-24T07:12:23;18.41;88.03
80779;SHT30;70170;47.856;10.956;2023-07-24T07:14:49;18.70;85.65
80779;SHT30;70170;47.856;10.956;2023-07-24T07:17:14;18.87;83.75
80779;SHT30;70170;47.856;10.956;2023-07-24T07:19:40;18.96;82.91
80779;SHT30;70170;47.856;10.956;2023-07-24T07:22:05;19.10;82.75
80779;SHT30;70170;47.856;10.956;2023-07-24T07:24:31;19.17;81.10
80779;SHT30;70170;47.856;10.956;2023-07-24T07:26:56;19.14;81.68
80779;SHT30;70170;47.856;10.956;2023-07-24T07:29:21;19.18;81.14
80779;SHT30;70170;47.856;10.956;2023-07-24T07:31:47;19.25;80.49
80779;SHT30;70170;47.856;10.956;2023-07-24T07:34:12;19.39;80.64
80779;SHT30;70170;47.856;10.956;2023-07-24T07:36:37;19.46;80.51
80779;SHT30;70170;47.856;10.956;2023-07-24T07:39:03;19.41;79.70
80779;SHT30;70170;47.856;10.956;2023-07-24T07:41:28;19.34;80.18
80779;SHT30;70170;47.856;10.956;2023-07-24T07:43:54;19.25;79.88
80779;SHT30;70170;47.856;10.956;2023-07-24T07:46:19;19.28;80.73
80779;SHT30;70170;47.856;10.956;2023-07-24T07:48:44;19.59;80.25
80779;SHT30;70170;47.856;10.956;2023-07-24T07:51:11;19.82;78.62
80779;SHT30;70170;47.856;10.956;2023-07-24T07:53:37;19.97;78.12
80779;SHT30;70170;47.856;10.956;2023-07-24T07:56:03;20.03;77.19
80779;SHT30;70170;47.856;10.956;2023-07-24T07:58:29;20.31;76.00
80779;SHT30;70170;47.856;10.956;2023-07-24T08:00:54;20.56;75.65
80779;SHT30;70170;47.856;10.956;2023-07-24T08:03:20;20.69;75.10
80779;SHT30;70170;47.856;10.956;2023-07-24T08:05:45;20.63;74.98
80779;SHT30;70170;47.856;10.956;2023-07-24T08:08:10;20.72;75.19
80779;SHT30;70170;47.856;10.956;2023-07-24T08:10:39;20.79;74.76
80779;SHT30;70170;47.856;10.956;2023-07-24T08:13:05;21.03;74.40
80779;SHT30;70170;47.856;10.956;2023-07-24T08:15:36;21.06;74.44
80779;SHT30;70170;47.856;10.956;2023-07-24T08:18:03;21.20;74.09
80779;SHT30;70170;47.856;10.956;2023-07-24T08:20:28;21.56;74.47
80779;SHT30;70170;47.856;10.956;2023-07-24T08:22:54;21.79;73.35
80779;SHT30;70170;47.856;10.956;2023-07-24T08:25:19;22.00;72.48
80779;SHT30;70170;47.856;10.956;2023-07-24T08:27:44;22.21;71.44
80779;SHT30;70170;47.856;10.956;2023-07-24T08:30:10;22.31;71.40
80779;SHT30;70170;47.856;10.956;2023-07-24T08:32:36;22.16;72.16
80779;SHT30;70170;47.856;10.956;2023-07-24T08:35:01;22.49;70.82
80779;SHT30;70170;47.856;10.956;2023-07-24T08:37:26;22.66;70.51
80779;SHT30;70170;47.856;10.956;2023-07-24T08:39:51;22.22;71.12
80779;SHT30;70170;47.856;10.956;2023-07-24T08:42:17;22.71;70.14
80779;SHT30;70170;47.856;10.956;2023-07-24T08:44:43;22.56;70.26
80779;SHT30;70170;47.856;10.956;2023-07-24T08:47:10;22.83;68.62
80779;SHT30;70170;47.856;10.956;2023-07-24T08:49:38;23.04;69.02
80779;SHT30;70170;47.856;10.956;2023-07-24T08:52:05;23.03;68.74
80779;SHT30;70170;47.856;10.956;2023-07-24T08:54:32;23.16;68.36
80779;SHT30;70170;47.856;10.956;2023-07-24T08:56:59;23.30;67.77
80779;SHT30;70170;47.856;10.956;2023-07-24T08:59:24;23.37;67.70
80779;SHT30;70170;47.856;10.956;2023-07-24T09:01:50;23.57;67.85
80779;SHT30;70170;47.856;10.956;2023-07-24T09:04:15;23.40;68.53
80779;SHT30;70170;47.856;10.956;2023-07-24T09:06:41;23.62;68.13
80779;SHT30;70170;47.856;10.956;2023-07-24T09:09:13;23.89;67.79
80779;SHT30;70170;47.856;10.956;2023-07-24T09:11:49;23.58;66.46
80779;SHT30;70170;47.856;10.956;2023-07-24T09:14:25;23.71;67.37
80779;SHT30;70170;47.856;10.956;2023-07-24T09:17:08;23.62;65.33
80779;SHT30;70170;47.856;10.956;2023-07-24T09:19:34;24.17;64.55
80779;SHT30;70170;47.856;10.956;2023-07-24T09:22:14;23.81;65.19
80779;SHT30;70170;47.856;10.956;2023-07-24T09:24:53;23.07;67.07
80779;SHT30;70170;47.856;10.956;2023-07-24T09:27:19;24.26;65.01
80779;SHT30;70170;47.856;10.956;2023-07-24T09:29:45;23.38;66.40
80779;SHT30;70170;47.856;10.956;2023-07-24T09:34:46;23.86;66.18
80779;SHT30;70170;47.856;10.956;2023-07-24T09:37:32;23.85;65.98
80779;SHT30;70170;47.856;10.956;2023-07-24T09:39:57;24.06;66.60
80779;SHT30;70170;47.856;10.956;2023-07-24T09:42:33;23.83;66.52
80779;SHT30;70170;47.856;10.956;2023-07-24T09:45:00;24.10;65.52
80779;SHT30;70170;47.856;10.956;2023-07-24T09:47:26;23.96;64.53
80779;SHT30;70170;47.856;10.956;2023-07-24T09:49:52;25.38;62.34
80779;SHT30;70170;47.856;10.956;2023-07-24T09:52:19;25.68;61.99
80779;SHT30;70170;47.856;10.956;2023-07-24T09:54:55;26.41;60.18
80779;SHT30;70170;47.856;10.956;2023-07-24T09:57:25;25.24;61.07
80779;SHT30;70170;47.856;10.956;2023-07-24T09:59:52;25.03;60.52
80779;SHT30;70170;47.856;10.956;2023-07-24T10:02:19;25.68;58.51
80779;SHT30;70170;47.856;10.956;2023-07-24T10:04:44;27.03;57.19
80779;SHT30;70170;47.856;10.956;2023-07-24T10:07:10;28.04;54.68
80779;SHT30;70170;47.856;10.956;2023-07-24T10:09:36;28.73;51.23
80779;SHT30;70170;47.856;10.956;2023-07-24T10:12:05;29.08;51.01
80779;SHT30;70170;47.856;10.956;2023-07-24T10:14:30;29.74;49.77
80779;SHT30;70170;47.856;10.956;2023-07-24T10:16:56;29.47;49.20
80779;SHT30;70170;47.856;10.956;2023-07-24T10:19:22;28.19;52.22
80779;SHT30;70170;47.856;10.956;2023-07-24T10:21:48;26.57;55.55
80779;SHT30;70170;47.856;10.956;2023-07-24T10:24:16;27.09;52.96
80779;SHT30;70170;47.856;10.956;2023-07-24T10:26:42;27.42;53.07
80779;SHT30;70170;47.856;10.956;2023-07-24T10:29:09;27.02;54.29
80779;SHT30;70170;47.856;10.956;2023-07-24T10:31:35;27.71;52.96
80779;SHT30;70170;47.856;10.956;2023-07-24T10:34:05;29.07;50.75
80779;SHT30;70170;47.856;10.956;2023-07-24T10:36:34;29.55;49.76
80779;SHT30;70170;47.856;10.956;2023-07-24T10:38:59;28.88;52.58
80779;SHT30;70170;47.856;10.956;2023-07-24T10:41:36;28.52;53.00
80779;SHT30;70170;47.856;10.956;2023-07-24T10:44:02;28.12;54.73
80779;SHT30;70170;47.856;10.956;2023-07-24T10:46:39;27.97;55.04
80779;SHT30;70170;47.856;10.956;2023-07-24T10:49:05;27.74;54.79
80779;SHT30;70170;47.856;10.956;2023-07-24T10:51:31;27.64;53.35
80779;SHT30;70170;47.856;10.956;2023-07-24T10:54:02;27.19;54.12
80779;SHT30;70170;47.856;10.956;2023-07-24T10:56:28;26.57;55.18
80779;SHT30;70170;47.856;10.956;2023-07-24T10:58:54;26.87;55.25
80779;SHT30;70170;47.856;10.956;2023-07-24T11:01:19;26.87;55.78
80779;SHT30;70170;47.856;10.956;2023-07-24T11:03:44;26.36;58.74
80779;SHT30;70170;47.856;10.956;2023-07-24T11:06:18;26.27;59.35
80779;SHT30;70170;47.856;10.956;2023-07-24T11:08:58;26.46;55.90
80779;SHT30;70170;47.856;10.956;2023-07-24T11:11:30;26.23;58.68
80779;SHT30;70170;47.856;10.956;2023-07-24T11:13:56;26.18;58.03
80779;SHT30;70170;47.856;10.956;2023-07-24T11:16:22;26.67;59.36
80779;SHT30;70170;47.856;10.956;2023-07-24T11:18:48;26.80;57.64
80779;SHT30;70170;47.856;10.956;2023-07-24T11:21:14;25.44;59.78
80779;SHT30;70170;47.856;10.956;2023-07-24T11:23:53;26.32;57.42
80779;SHT30;70170;47.856;10.956;2023-07-24T11:26:22;26.71;57.14
80779;SHT30;70170;47.856;10.956;2023-07-24T11:28:51;27.06;57.06
80779;SHT30;70170;47.856;10.956;2023-07-24T11:31:17;27.29;55.73
80779;SHT30;70170;47.856;10.956;2023-07-24T11:33:47;26.47;57.14
80779;SHT30;70170;47.856;10.956;2023-07-24T11:36:13;26.35;57.90
80779;SHT30;70170;47.856;10.956;2023-07-24T11:38:39;26.84;55.75
80779;SHT30;70170;47.856;10.956;2023-07-24T11:41:04;26.20;57.67
80779;SHT30;70170;47.856;10.956;2023-07-24T11:43:30;25.96;59.87
80779;SHT30;70170;47.856;10.956;2023-07-24T11:45:55;26.68;58.07
80779;SHT30;70170;47.856;10.956;2023-07-24T11:48:23;26.82;57.42
80779;SHT30;70170;47.856;10.956;2023-07-24T11:50:50;27.42;56.53
80779;SHT30;70170;47.856;10.956;2023-07-24T11:53:30;27.45;55.89
80779;SHT30;70170;47.856;10.956;2023-07-24T11:55:58;27.29;55.12
80779;SHT30;70170;47.856;10.956;2023-07-24T11:58:27;27.01;55.62
80779;SHT30;70170;47.856;10.956;2023-07-24T12:00:53;26.71;56.52
80779;SHT30;70170;47.856;10.956;2023-07-24T12:03:20;26.32;60.00
80779;SHT30;70170;47.856;10.956;2023-07-24T12:05:46;25.74;61.07
80779;SHT30;70170;47.856;10.956;2023-07-24T12:08:12;25.29;60.92
80779;SHT30;70170;47.856;10.956;2023-07-24T12:10:39;25.18;61.45
80779;SHT30;70170;47.856;10.956;2023-07-24T12:13:06;25.08;62.32
80779;SHT30;70170;47.856;10.956;2023-07-24T12:15:31;24.48;64.52
80779;SHT30;70170;47.856;10.956;2023-07-24T12:17:59;23.27;70.89
80779;SHT30;70170;47.856;10.956;2023-07-24T12:20:24;22.16;76.41
80779;SHT30;70170;47.856;10.956;2023-07-24T12:22:50;21.21;78.49
80779;SHT30;70170;47.856;10.956;2023-07-24T12:25:15;20.71;79.53
80779;SHT30;70170;47.856;10.956;2023-07-24T12:27:41;20.31;81.02
80779;SHT30;70170;47.856;10.956;2023-07-24T12:30:07;19.59;86.18
80779;SHT30;70170;47.856;10.956;2023-07-24T12:32:33;18.91;90.26
80779;SHT30;70170;47.856;10.956;2023-07-24T12:34:59;18.45;93.23
80779;SHT30;70170;47.856;10.956;2023-07-24T12:37:24;18.18;95.40
80779;SHT30;70170;47.856;10.956;2023-07-24T12:39:49;18.04;95.62
80779;SHT30;70170;47.856;10.956;2023-07-24T12:42:15;17.93;94.55
80779;SHT30;70170;47.856;10.956;2023-07-24T12:44:42;17.89;95.46
80779;SHT30;70170;47.856;10.956;2023-07-24T12:47:08;17.77;95.19
80779;SHT30;70170;47.856;10.956;2023-07-24T12:49:33;17.56;95.36
80779;SHT30;70170;47.856;10.956;2023-07-24T12:51:59;17.24;92.27
80779;SHT30;70170;47.856;10.956;2023-07-24T12:54:24;17.08;93.65
80779;SHT30;70170;47.856;10.956;2023-07-24T12:56:50;17.06;93.44
80779;SHT30;70170;47.856;10.956;2023-07-24T12:59:16;17.04;92.71
80779;SHT30;70170;47.856;10.956;2023-07-24T13:01:42;17.19;93.44
80779;SHT30;70170;47.856;10.956;2023-07-24T13:04:07;17.31;92.64
80779;SHT30;70170;47.856;10.956;2023-07-24T13:06:33;17.46;91.53
80779;SHT30;70170;47.856;10.956;2023-07-24T13:08:58;17.36;89.83
80779;SHT30;70170;47.856;10.956;2023-07-24T13:11:24;17.62;90.14
80779;SHT30;70170;47.856;10.956;2023-07-24T13:13:49;18.53;87.27
80779;SHT30;70170;47.856;10.956;2023-07-24T13:16:15;19.07;86.70
80779;SHT30;70170;47.856;10.956;2023-07-24T13:18:41;19.19;87.18
80779;SHT30;70170;47.856;10.956;2023-07-24T13:21:06;19.52;85.65
80779;SHT30;70170;47.856;10.956;2023-07-24T13:23:33;19.79;82.65
80779;SHT30;70170;47.856;10.956;2023-07-24T13:25:58;19.94;84.43
80779;SHT30;70170;47.856;10.956;2023-07-24T13:28:23;20.28;82.59
80779;SHT30;70170;47.856;10.956;2023-07-24T13:30:48;20.46;82.78
80779;SHT30;70170;47.856;10.956;2023-07-24T13:33:14;20.94;80.53
80779;SHT30;70170;47.856;10.956;2023-07-24T13:35:39;20.86;78.49
80779;SHT30;70170;47.856;10.956;2023-07-24T13:38:04;20.65;79.05
80779;SHT30;70170;47.856;10.956;2023-07-24T13:40:30;20.79;80.48
80779;SHT30;70170;47.856;10.956;2023-07-24T13:42:55;21.37;78.84
80779;SHT30;70170;47.856;10.956;2023-07-24T13:45:21;22.03;77.58
80779;SHT30;70170;47.856;10.956;2023-07-24T13:47:46;22.37;76.93
80779;SHT30;70170;47.856;10.956;2023-07-24T13:50:11;22.54;74.44
80779;SHT30;70170;47.856;10.956;2023-07-24T13:52:37;22.68;74.38
80779;SHT30;70170;47.856;10.956;2023-07-24T13:55:02;21.38;77.28
80779;SHT30;70170;47.856;10.956;2023-07-24T13:57:28;21.10;80.54
80779;SHT30;70170;47.856;10.956;2023-07-24T13:59:53;22.62;74.98
80779;SHT30;70170;47.856;10.956;2023-07-24T14:02:18;23.24;72.79
80779;SHT30;70170;47.856;10.956;2023-07-24T14:04:44;23.30;73.16
80779;SHT30;70170;47.856;10.956;2023-07-24T14:07:09;23.95;71.12
80779;SHT30;70170;47.856;10.956;2023-07-24T14:09:35;25.06;69.03
80779;SHT30;70170;47.856;10.956;2023-07-24T14:12:01;25.18;66.33
80779;SHT30;70170;47.856;10.956;2023-07-24T14:14:26;26.87;61.92
80779;SHT30;70170;47.856;10.956;2023-07-24T14:16:51;27.49;62.55
80779;SHT30;70170;47.856;10.956;2023-07-24T14:19:17;27.46;60.57
80779;SHT30;70170;47.856;10.956;2023-07-24T14:21:43;23.68;70.10
80779;SHT30;70170;47.856;10.956;2023-07-24T14:24:09;24.24;71.30
80779;SHT30;70170;47.856;10.956;2023-07-24T14:26:34;25.93;66.09
80779;SHT30;70170;47.856;10.956;2023-07-24T14:29:02;27.05;62.67
80779;SHT30;70170;47.856;10.956;2023-07-24T14:31:27;27.74;60.85
80779;SHT30;70170;47.856;10.956;2023-07-24T14:33:54;28.45;58.45
80779;SHT30;70170;47.856;10.956;2023-07-24T14:36:19;29.32;56.90
80779;SHT30;70170;47.856;10.956;2023-07-24T14:38:44;29.07;57.09
80779;SHT30;70170;47.856;10.956;2023-07-24T14:41:09;29.16;56.85
80779;SHT30;70170;47.856;10.956;2023-07-24T14:43:37;24.72;65.05
80779;SHT30;70170;47.856;10.956;2023-07-24T14:46:03;23.69;70.09
80779;SHT30;70170;47.856;10.956;2023-07-24T14:48:28;26.19;63.78
80779;SHT30;70170;47.856;10.956;2023-07-24T14:50:53;26.92;60.28
80779;SHT30;70170;47.856;10.956;2023-07-24T14:53:18;26.23;61.11
80779;SHT30;70170;47.856;10.956;2023-07-24T14:55:44;27.58;59.04
80779;SHT30;70170;47.856;10.956;2023-07-24T14:58:09;28.31;58.89
80779;SHT30;70170;47.856;10.956;2023-07-24T15:00:34;29.19;54.72
80779;SHT30;70170;47.856;10.956;2023-07-24T15:03:00;29.87;54.59
80779;SHT30;70170;47.856;10.956;2023-07-24T15:05:25;28.75;56.63
80779;SHT30;70170;47.856;10.956;2023-07-24T15:07:51;28.13;57.54
80779;SHT30;70170;47.856;10.956;2023-07-24T15:10:16;25.84;63.73
80779;SHT30;70170;47.856;10.956;2023-07-24T15:12:41;27.90;59.01
80779;SHT30;70170;47.856;10.956;2023-07-24T15:15:07;28.61;56.76